Terminal Aerodrome Forecast
Issued by NWS

Home | Current Version | Previous Version | Text Only | Print | Product List | Glossary On
Versions: 1 2 3 4 5 6 7 8 9 10 11 12 13 14 15
000
FTUS45 KLKN 201723
TAFEKO
TAF
KEKO 201723Z 2018/2118 09006KT P6SM OVC060
     FM201900 11009KT P6SM VCSH OVC040
      TEMPO 2019/2023 2SM -SN BR BKN020
     FM210200 17006KT 3SM -SHSN OVC040
     FM210700 20008KT 6SM BR VCSH SCT015 OVC050=

USA.gov is the U.S. government's official web portal to all federal, state and local government web resources and services.